createdAt,value
2023-10-11T00:00:44.322Z,15.72
2023-10-11T00:03:29.262Z,15.64
2023-10-11T00:06:14.374Z,15.78
2023-10-11T00:08:59.292Z,15.58
2023-10-11T00:11:44.407Z,15.05
2023-10-11T00:14:29.273Z,14.71
2023-10-11T00:17:14.287Z,14.69
2023-10-11T00:19:59.338Z,14.94
2023-10-11T00:22:44.397Z,14.87
2023-10-11T00:25:29.432Z,15.00
2023-10-11T00:28:14.602Z,15.02
2023-10-11T00:30:59.545Z,15.20
2023-10-11T00:33:44.641Z,14.80
2023-10-11T00:36:29.655Z,14.47
2023-10-11T00:39:14.578Z,14.31
2023-10-11T00:41:59.524Z,14.29
2023-10-11T00:44:44.397Z,14.51
2023-10-11T00:47:29.472Z,14.25
2023-10-11T00:50:14.585Z,14.11
2023-10-11T00:55:48.036Z,14.37
2023-10-11T00:58:33.027Z,14.29
2023-10-11T01:01:18.039Z,14.77
2023-10-11T01:04:03.273Z,14.97
2023-10-11T01:06:48.099Z,15.29
2023-10-11T01:09:33.264Z,15.39
2023-10-11T01:12:18.134Z,15.61
2023-10-11T01:15:03.270Z,15.95
2023-10-11T01:17:48.270Z,15.87
2023-10-11T01:20:33.239Z,15.47
2023-10-11T01:23:18.379Z,15.33
2023-10-11T01:26:03.322Z,15.25
2023-10-11T01:28:48.317Z,14.79
2023-10-11T01:31:33.316Z,14.40
2023-10-11T01:34:18.584Z,14.56
2023-10-11T01:37:03.487Z,14.73
2023-10-11T01:39:48.576Z,15.24
2023-10-11T01:42:33.562Z,15.04
2023-10-11T01:45:18.737Z,14.69
2023-10-11T01:48:03.798Z,14.52
2023-10-11T01:50:48.818Z,14.48
2023-10-11T01:53:33.898Z,14.47
2023-10-11T01:56:18.888Z,14.27
2023-10-11T01:59:04.003Z,14.59
2023-10-11T02:01:49.109Z,14.72
2023-10-11T02:04:34.172Z,15.06
2023-10-11T02:07:19.210Z,15.04
2023-10-11T02:10:04.293Z,15.01
2023-10-11T02:12:49.561Z,15.13
2023-10-11T02:15:34.544Z,15.25
2023-10-11T02:18:19.648Z,14.80
2023-10-11T02:21:04.615Z,14.27
2023-10-11T02:23:49.628Z,14.17
2023-10-11T02:26:34.561Z,14.13
2023-10-11T02:29:19.540Z,14.19
2023-10-11T02:32:04.500Z,14.16
2023-10-11T02:34:49.472Z,14.18
2023-10-11T02:37:34.693Z,14.07
2023-10-11T02:40:19.584Z,14.18
2023-10-11T02:43:04.866Z,14.24
2023-10-11T02:45:49.707Z,14.74
2023-10-11T02:48:34.655Z,14.71
2023-10-11T02:51:19.796Z,14.80
2023-10-11T02:54:04.848Z,14.52
2023-10-11T02:56:49.912Z,14.18
2023-10-11T02:59:34.885Z,14.46
2023-10-11T03:02:19.946Z,14.83
2023-10-11T03:05:04.960Z,14.94
2023-10-11T03:07:50.067Z,14.62
2023-10-11T03:10:35.083Z,14.88
2023-10-11T03:13:20.034Z,14.85
2023-10-11T03:16:05.071Z,14.68
2023-10-11T03:18:50.059Z,14.21
2023-10-11T03:21:35.060Z,14.35
2023-10-11T03:24:20.000Z,14.43
2023-10-11T03:27:05.048Z,14.68
2023-10-11T03:29:50.031Z,14.94
2023-10-11T03:32:35.036Z,14.73
2023-10-11T03:35:20.123Z,15.12
2023-10-11T03:38:05.024Z,15.45
2023-10-11T03:40:50.052Z,15.14
2023-10-11T03:43:35.129Z,14.80
2023-10-11T03:46:20.145Z,14.01
2023-10-11T03:49:05.224Z,13.46
2023-10-11T03:51:50.276Z,13.69
2023-10-11T03:54:35.265Z,13.40
2023-10-11T03:57:20.534Z,13.49
2023-10-11T04:00:05.651Z,13.46
2023-10-11T04:02:50.552Z,14.14
2023-10-11T04:05:35.958Z,14.25
2023-10-11T04:08:20.959Z,14.25
2023-10-11T04:11:06.045Z,14.12
2023-10-11T04:13:50.943Z,14.71
2023-10-11T04:16:35.998Z,14.65
2023-10-11T04:19:21.179Z,14.93
2023-10-11T04:22:06.060Z,15.15
2023-10-11T04:24:51.266Z,15.18
2023-10-11T04:27:36.308Z,15.02
2023-10-11T04:30:21.305Z,14.62
2023-10-11T04:33:06.376Z,14.54
2023-10-11T04:35:51.343Z,13.64
2023-10-11T04:38:36.379Z,13.88
2023-10-11T04:41:21.405Z,13.88
2023-10-11T04:44:06.519Z,13.94
2023-10-11T04:46:51.526Z,13.87
2023-10-11T04:49:36.479Z,13.77
2023-10-11T04:52:21.375Z,13.89
2023-10-11T04:55:06.578Z,13.91
2023-10-11T04:57:51.427Z,13.40
2023-10-11T05:00:36.628Z,13.68
2023-10-11T05:03:21.790Z,13.58
2023-10-11T05:06:06.612Z,13.55
2023-10-11T05:08:51.721Z,13.43
2023-10-11T05:11:36.696Z,13.47
2023-10-11T05:14:21.832Z,13.83
2023-10-11T05:17:06.738Z,13.77
2023-10-11T05:19:51.935Z,14.19
2023-10-11T05:22:36.898Z,13.99
2023-10-11T05:25:21.996Z,14.14
2023-10-11T05:28:07.133Z,14.44
2023-10-11T05:30:52.032Z,14.56
2023-10-11T05:33:37.357Z,14.30
2023-10-11T05:36:22.260Z,14.19
2023-10-11T05:39:07.242Z,13.91
2023-10-11T05:41:52.246Z,13.91
2023-10-11T05:44:37.280Z,14.08
2023-10-11T05:47:22.576Z,14.38
2023-10-11T05:50:07.504Z,14.31
2023-10-11T05:52:52.594Z,14.13
2023-10-11T05:55:37.496Z,13.99
2023-10-11T05:58:22.554Z,13.90
2023-10-11T06:01:07.564Z,13.45
2023-10-11T06:03:52.896Z,13.21
2023-10-11T06:06:38.258Z,13.02
2023-10-11T06:09:23.192Z,13.06
2023-10-11T06:12:08.303Z,13.46
2023-10-11T06:14:53.483Z,13.62
2023-10-11T06:17:38.447Z,13.72
2023-10-11T06:20:23.587Z,13.76
2023-10-11T06:23:08.444Z,13.54
2023-10-11T06:25:53.479Z,13.79
2023-10-11T06:28:38.510Z,13.66
2023-10-11T06:31:23.614Z,14.19
2023-10-11T06:34:08.525Z,14.60
2023-10-11T06:36:53.662Z,14.86
2023-10-11T06:39:38.653Z,15.12
2023-10-11T06:42:23.895Z,15.25
2023-10-11T06:45:08.792Z,14.95
2023-10-11T06:47:53.957Z,14.74
2023-10-11T06:50:39.025Z,14.54
2023-10-11T06:53:24.547Z,13.97
2023-10-11T06:56:09.561Z,14.23
2023-10-11T06:58:54.553Z,14.14
2023-10-11T07:01:39.660Z,14.74
2023-10-11T07:04:24.831Z,15.42
2023-10-11T07:07:09.753Z,15.91
2023-10-11T07:09:54.815Z,16.16
2023-10-11T07:12:39.820Z,16.42
2023-10-11T07:15:24.985Z,16.54
2023-10-11T07:18:10.040Z,16.82
2023-10-11T07:20:55.139Z,17.04
2023-10-11T07:23:40.067Z,17.11
2023-10-11T07:26:25.150Z,17.11
2023-10-11T07:29:10.084Z,16.89
2023-10-11T07:31:55.362Z,17.01
2023-10-11T07:34:40.438Z,17.13
2023-10-11T07:37:25.346Z,17.19
2023-10-11T07:40:10.475Z,17.56
2023-10-11T07:42:55.477Z,17.47
2023-10-11T07:45:40.218Z,17.64
2023-10-11T07:48:25.318Z,17.51
2023-10-11T07:51:10.443Z,17.35
2023-10-11T07:53:55.388Z,17.75
2023-10-11T07:56:40.350Z,17.89
2023-10-11T07:59:25.453Z,17.48
2023-10-11T08:02:10.330Z,17.60
2023-10-11T08:04:55.466Z,17.62
2023-10-11T08:07:40.535Z,17.81
2023-10-11T08:10:25.478Z,17.76
2023-10-11T08:13:10.449Z,17.74
2023-10-11T08:15:55.584Z,17.96
2023-10-11T08:18:40.748Z,17.85
2023-10-11T08:21:25.664Z,17.80
2023-10-11T08:24:10.604Z,17.95
2023-10-11T08:26:55.676Z,18.12
2023-10-11T08:29:46.649Z,18.30
2023-10-11T08:32:42.190Z,18.22
2023-10-11T08:35:27.587Z,18.14
2023-10-11T08:38:12.620Z,18.09
2023-10-11T08:40:57.599Z,17.87
2023-10-11T08:43:42.600Z,18.16
2023-10-11T08:46:27.593Z,18.57
2023-10-11T08:49:12.571Z,18.72
2023-10-11T08:51:57.366Z,18.72
2023-10-11T08:54:42.583Z,18.82
2023-10-11T08:57:27.389Z,18.39
2023-10-11T09:00:12.764Z,18.38
2023-10-11T09:03:00.132Z,18.43
2023-10-11T09:05:45.357Z,18.48
2023-10-11T09:08:30.471Z,18.63
2023-10-11T09:11:15.321Z,18.85
2023-10-11T09:14:00.373Z,18.57
2023-10-11T09:16:45.362Z,18.93
2023-10-11T09:19:30.338Z,18.67
2023-10-11T09:22:15.315Z,18.69
2023-10-11T09:25:00.411Z,18.76
2023-10-11T09:27:45.423Z,18.98
2023-10-11T09:30:30.308Z,19.07
2023-10-11T09:33:15.502Z,19.19
2023-10-11T09:36:00.414Z,18.99
2023-10-11T09:38:45.526Z,19.12
2023-10-11T09:41:30.617Z,19.15
2023-10-11T09:44:15.665Z,19.23
2023-10-11T09:47:00.709Z,19.41
2023-10-11T09:49:45.591Z,19.44
2023-10-11T09:52:30.624Z,19.16
2023-10-11T09:55:15.529Z,19.48
2023-10-11T09:58:00.503Z,19.46
2023-10-11T10:00:45.757Z,19.31
2023-10-11T10:03:30.985Z,19.30
2023-10-11T10:06:15.990Z,19.39
2023-10-11T10:09:01.096Z,19.30
2023-10-11T10:11:46.252Z,19.39
2023-10-11T10:14:31.305Z,19.19
2023-10-11T10:17:16.440Z,19.45
2023-10-11T10:20:01.531Z,19.82
2023-10-11T10:22:46.607Z,20.04
2023-10-11T10:25:31.778Z,19.70
2023-10-11T10:28:16.693Z,19.56
2023-10-11T10:31:01.604Z,19.92
2023-10-11T10:33:46.545Z,20.14
2023-10-11T10:36:31.622Z,20.12
2023-10-11T10:39:16.822Z,19.95
2023-10-11T10:42:03.783Z,19.95
2023-10-11T10:44:48.848Z,19.98
2023-10-11T10:47:33.909Z,19.83
2023-10-11T10:50:18.806Z,19.78
2023-10-11T10:53:03.781Z,20.12
2023-10-11T10:55:48.845Z,20.21
2023-10-11T10:58:33.989Z,19.99
2023-10-11T11:01:23.953Z,20.19
2023-10-11T11:04:09.189Z,20.49
2023-10-11T11:06:54.040Z,20.10
2023-10-11T11:09:39.008Z,20.26
2023-10-11T11:12:24.134Z,20.38
2023-10-11T11:15:09.146Z,20.45
2023-10-11T11:17:54.313Z,20.56
2023-10-11T11:20:39.316Z,20.27
2023-10-11T11:23:24.480Z,20.58
2023-10-11T11:26:18.389Z,20.67
2023-10-11T11:29:10.984Z,20.60
2023-10-11T11:31:56.111Z,20.66
2023-10-11T11:34:41.054Z,20.87
2023-10-11T11:37:26.163Z,20.79
2023-10-11T11:40:10.930Z,20.66
2023-10-11T11:42:56.062Z,20.87
2023-10-11T11:45:41.037Z,20.94
2023-10-11T11:48:26.143Z,21.10
2023-10-11T11:51:10.961Z,20.81
2023-10-11T11:53:56.050Z,20.71
2023-10-11T11:56:41.112Z,20.71
2023-10-11T11:59:26.065Z,21.02
2023-10-11T12:02:12.177Z,20.65
2023-10-11T12:04:57.337Z,21.11
2023-10-11T12:07:42.356Z,21.13
2023-10-11T12:10:27.490Z,21.19
2023-10-11T12:13:12.534Z,21.06
2023-10-11T12:15:57.758Z,21.01
2023-10-11T12:18:42.642Z,21.16
2023-10-11T12:21:27.612Z,20.94
2023-10-11T12:24:28.573Z,21.23
2023-10-11T12:27:16.130Z,20.94
2023-10-11T12:30:09.141Z,20.89
2023-10-11T12:32:56.842Z,21.07
2023-10-11T12:35:43.075Z,21.45
2023-10-11T12:38:28.041Z,21.35
2023-10-11T12:41:13.063Z,21.50
2023-10-11T12:43:58.000Z,21.40
2023-10-11T12:46:43.090Z,21.32
2023-10-11T12:49:28.013Z,21.51
2023-10-11T12:52:13.107Z,21.16
2023-10-11T12:54:58.238Z,21.04
2023-10-11T12:57:43.256Z,21.52
2023-10-11T13:00:28.473Z,21.15
2023-10-11T13:03:13.323Z,21.49
2023-10-11T13:05:58.384Z,21.38
2023-10-11T13:08:43.297Z,21.72
2023-10-11T13:11:28.364Z,21.60
2023-10-11T13:14:13.308Z,21.78
2023-10-11T13:16:58.386Z,21.78
2023-10-11T13:19:43.395Z,21.81
2023-10-11T13:22:28.323Z,21.78
2023-10-11T13:25:13.476Z,21.48
2023-10-11T13:27:58.418Z,21.69
2023-10-11T13:30:43.658Z,21.58
2023-10-11T13:33:28.478Z,21.61
2023-10-11T13:36:13.666Z,21.27
2023-10-11T13:38:58.830Z,21.42
2023-10-11T13:41:43.789Z,21.57
2023-10-11T13:44:29.003Z,21.74
2023-10-11T13:47:14.158Z,21.56
2023-10-11T13:49:59.108Z,21.60
2023-10-11T13:52:43.882Z,21.77
2023-10-11T13:55:13.910Z,21.78
2023-10-11T13:57:58.652Z,21.96
2023-10-11T14:00:43.717Z,21.91
2023-10-11T14:03:28.912Z,21.73
2023-10-11T14:06:13.875Z,21.37
2023-10-11T14:08:58.796Z,21.33
2023-10-11T14:11:43.684Z,21.44
2023-10-11T14:14:28.752Z,21.14
2023-10-11T14:17:13.671Z,21.01
2023-10-11T14:19:58.320Z,20.52
2023-10-11T14:22:43.320Z,20.72
2023-10-11T14:25:28.469Z,20.65
2023-10-11T14:28:13.467Z,20.33
2023-10-11T14:30:58.508Z,20.63
2023-10-11T14:33:43.473Z,20.09
2023-10-11T14:36:28.429Z,20.37
2023-10-11T14:39:13.477Z,20.17
2023-10-11T14:41:58.508Z,19.97
2023-10-11T14:44:43.624Z,19.94
2023-10-11T14:47:28.528Z,19.81
2023-10-11T14:50:13.724Z,19.64
2023-10-11T14:52:58.631Z,19.86
2023-10-11T14:55:43.574Z,20.01
2023-10-11T14:58:28.626Z,19.78
2023-10-11T15:01:13.574Z,19.89
2023-10-11T15:03:58.775Z,19.71
2023-10-11T15:06:43.572Z,19.27
2023-10-11T15:09:28.653Z,19.67
2023-10-11T15:12:13.789Z,19.67
2023-10-11T15:14:58.795Z,19.48
2023-10-11T15:17:44.050Z,19.52
2023-10-11T15:20:29.148Z,19.31
2023-10-11T15:23:14.216Z,19.51
2023-10-11T15:25:59.174Z,19.24
2023-10-11T15:28:44.105Z,19.20
2023-10-11T15:31:29.284Z,19.19
2023-10-11T15:34:14.417Z,19.29
2023-10-11T15:36:59.240Z,19.05
2023-10-11T15:39:44.438Z,18.94
2023-10-11T15:42:29.418Z,18.80
2023-10-11T15:45:14.219Z,19.11
2023-10-11T15:47:59.215Z,18.76
2023-10-11T15:50:44.178Z,18.88
2023-10-11T15:53:29.211Z,18.98
2023-10-11T15:56:14.372Z,18.87
2023-10-11T15:58:59.326Z,18.74
2023-10-11T16:01:44.556Z,19.06
2023-10-11T16:04:29.451Z,18.94
2023-10-11T16:07:14.421Z,19.27
2023-10-11T16:09:59.319Z,19.42
2023-10-11T16:12:45.690Z,19.51
2023-10-11T16:15:30.787Z,18.97
2023-10-11T16:18:15.917Z,19.00
2023-10-11T16:21:03.624Z,19.25
2023-10-11T16:23:49.721Z,18.70
2023-10-11T16:26:35.390Z,18.85
2023-10-11T16:29:20.886Z,18.84
2023-10-11T16:32:05.884Z,18.63
2023-10-11T16:34:50.920Z,18.48
2023-10-11T16:37:35.949Z,18.12
2023-10-11T16:40:20.910Z,18.37
2023-10-11T16:43:06.140Z,18.37
2023-10-11T16:45:51.082Z,18.41
2023-10-11T16:48:36.063Z,18.38
2023-10-11T16:51:21.118Z,18.16
2023-10-11T16:54:06.156Z,17.98
2023-10-11T16:56:51.118Z,18.19
2023-10-11T16:59:36.164Z,18.16
2023-10-11T17:02:21.176Z,17.91
2023-10-11T17:05:05.889Z,18.26
2023-10-11T17:07:51.036Z,18.15
2023-10-11T17:10:35.991Z,18.10
2023-10-11T17:13:21.121Z,18.04
2023-10-11T17:16:06.087Z,18.00
2023-10-11T17:18:51.071Z,17.87
2023-10-11T17:21:36.074Z,17.67
2023-10-11T17:24:21.337Z,17.73
2023-10-11T17:27:06.267Z,17.90
2023-10-11T17:29:51.315Z,17.78
2023-10-11T17:32:36.492Z,17.79
2023-10-11T17:35:21.245Z,17.82
2023-10-11T17:38:06.272Z,17.95
2023-10-11T17:40:51.272Z,17.68
2023-10-11T17:43:36.364Z,18.00
2023-10-11T17:46:21.325Z,18.41
2023-10-11T17:49:06.211Z,18.67
2023-10-11T17:51:51.326Z,18.71
2023-10-11T17:54:36.436Z,18.35
2023-10-11T17:57:21.515Z,18.22
2023-10-11T18:00:06.436Z,17.98
2023-10-11T18:02:51.696Z,17.67
2023-10-11T18:05:36.574Z,17.96
2023-10-11T18:08:21.606Z,18.62
2023-10-11T18:11:06.781Z,17.97
2023-10-11T18:13:51.721Z,17.80
2023-10-11T18:16:36.743Z,18.23
2023-10-11T18:19:21.776Z,18.43
2023-10-11T18:22:06.732Z,17.70
2023-10-11T18:24:51.937Z,18.16
2023-10-11T18:27:37.002Z,17.47
2023-10-11T18:30:21.970Z,17.45
2023-10-11T18:33:07.005Z,17.34
2023-10-11T18:35:52.032Z,17.51
2023-10-11T18:38:37.123Z,17.38
2023-10-11T18:41:22.102Z,17.27
2023-10-11T18:44:07.105Z,17.75
2023-10-11T18:46:52.188Z,17.55
2023-10-11T18:49:37.256Z,16.95
2023-10-11T18:52:22.413Z,17.11
2023-10-11T18:55:07.604Z,16.87
2023-10-11T18:57:53.265Z,16.64
2023-10-11T19:00:38.808Z,16.81
2023-10-11T19:03:23.839Z,16.85
2023-10-11T19:06:10.785Z,16.82
2023-10-11T19:08:56.882Z,16.81
2023-10-11T19:11:41.741Z,16.72
2023-10-11T19:14:26.771Z,16.44
2023-10-11T19:17:11.824Z,16.51
2023-10-11T19:19:56.834Z,16.68
2023-10-11T19:22:41.811Z,16.99
2023-10-11T19:25:26.888Z,17.00
2023-10-11T19:28:12.049Z,16.84
2023-10-11T19:30:57.014Z,17.49
2023-10-11T19:33:42.159Z,17.13
2023-10-11T19:36:27.093Z,17.20
2023-10-11T19:39:12.154Z,16.61
2023-10-11T19:41:57.015Z,16.25
2023-10-11T19:44:42.028Z,16.28
2023-10-11T19:47:27.025Z,16.05
2023-10-11T19:50:12.038Z,16.12
2023-10-11T19:52:57.166Z,16.14
2023-10-11T19:55:42.321Z,16.25
2023-10-11T19:58:27.420Z,16.48
2023-10-11T20:01:12.558Z,16.59
2023-10-11T20:03:57.468Z,16.44
2023-10-11T20:06:42.122Z,17.07
2023-10-11T20:09:27.142Z,17.33
2023-10-11T20:12:12.264Z,17.21
2023-10-11T20:14:57.062Z,16.77
2023-10-11T20:17:42.082Z,16.32
2023-10-11T20:20:26.919Z,16.08
2023-10-11T20:23:12.067Z,15.71
2023-10-11T20:25:57.132Z,15.66
2023-10-11T20:28:42.332Z,16.06
2023-10-11T20:31:27.323Z,16.11
2023-10-11T20:34:12.323Z,16.51
2023-10-11T20:36:57.249Z,16.91
2023-10-11T20:39:42.208Z,16.88
2023-10-11T20:42:27.193Z,16.50
2023-10-11T20:45:12.145Z,16.59
2023-10-11T20:47:57.381Z,16.12
2023-10-11T20:50:42.216Z,16.32
2023-10-11T20:53:27.262Z,16.21
2023-10-11T20:56:12.263Z,16.30
2023-10-11T20:58:57.299Z,15.83
2023-10-11T21:01:42.508Z,15.70
2023-10-11T21:04:27.388Z,15.66
2023-10-11T21:07:12.546Z,15.47
2023-10-11T21:09:57.259Z,15.37
2023-10-11T21:12:42.373Z,15.31
2023-10-11T21:15:27.343Z,15.20
2023-10-11T21:18:12.502Z,15.55
2023-10-11T21:20:57.439Z,15.67
2023-10-11T21:23:42.521Z,15.75
2023-10-11T21:26:27.706Z,16.10
2023-10-11T21:29:12.533Z,16.06
2023-10-11T21:31:57.564Z,16.32
2023-10-11T21:34:42.553Z,15.78
2023-10-11T21:37:27.506Z,15.42
2023-10-11T21:40:12.432Z,15.23
2023-10-11T21:42:57.396Z,15.10
2023-10-11T21:45:42.489Z,15.13
2023-10-11T21:48:27.317Z,15.37
2023-10-11T21:51:12.483Z,15.83
2023-10-11T21:53:57.496Z,15.62
2023-10-11T21:56:35.826Z,15.52
2023-10-11T21:59:20.883Z,16.03
2023-10-11T22:02:06.345Z,16.36
2023-10-11T22:04:51.397Z,16.46
2023-10-11T22:07:36.425Z,16.60
2023-10-11T22:10:21.457Z,16.31
2023-10-11T22:13:06.577Z,15.03
2023-10-11T22:15:51.444Z,15.03
2023-10-11T22:18:36.367Z,15.10
2023-10-11T22:21:21.376Z,14.62
2023-10-11T22:24:06.588Z,14.40
2023-10-11T22:26:51.702Z,14.52
2023-10-11T22:29:36.689Z,14.67
2023-10-11T22:32:21.713Z,14.94
2023-10-11T22:35:06.761Z,15.01
2023-10-11T22:37:51.671Z,14.96
2023-10-11T22:40:36.658Z,15.36
2023-10-11T22:43:30.317Z,15.73
2023-10-11T22:46:15.897Z,15.69
2023-10-11T22:49:01.069Z,15.89
2023-10-11T22:51:46.068Z,15.62
2023-10-11T22:54:31.044Z,14.96
2023-10-11T22:57:16.042Z,15.21
2023-10-11T23:00:00.987Z,15.29
2023-10-11T23:02:46.232Z,15.04
2023-10-11T23:05:31.175Z,15.01
2023-10-11T23:08:16.352Z,14.73
2023-10-11T23:11:01.075Z,14.74
2023-10-11T23:13:46.169Z,15.03
2023-10-11T23:16:31.137Z,14.83
2023-10-11T23:19:16.114Z,15.05
2023-10-11T23:22:01.102Z,15.41
2023-10-11T23:24:46.091Z,15.69
2023-10-11T23:27:30.999Z,15.43
2023-10-11T23:30:16.063Z,15.24
2023-10-11T23:33:01.164Z,14.76
2023-10-11T23:35:46.094Z,15.09
2023-10-11T23:38:31.206Z,15.08
2023-10-11T23:41:16.358Z,15.34
2023-10-11T23:44:01.270Z,15.79
2023-10-11T23:46:46.210Z,16.01
2023-10-11T23:49:40.963Z,15.14
2023-10-11T23:52:27.280Z,14.62
2023-10-11T23:55:12.326Z,15.02
2023-10-11T23:57:57.345Z,14.71
